Main page
METAR-TAF:

METAR-TAF

Airports :

Pontoise – Cormeilles Aerodrome

Pontoise, France

latitude: 49-05-48N, longitude: 002-02-27E, elevation: 99 m

Current weather observation

The report was made 22 minutes ago, at 21:00 UTC
Wind 1 kt from the East/Southeast
Temperature 6°C
Humidity 93%
Pressure 1029 hPa
Visibility: 9000 m

METAR: LFPT 132100Z AUTO 11001KT 9000 NSC 06/05 Q1029

Time: 22:22 (21:22 UTC)


TAF: missing

Weather observations and forecasts of more than 4000 airports (METAR and TAF reports).

The available stations are represented by yellow and red dots on the map.

Hover mouse over dot to see the name of the station.

Then click to see weather observations and forecasts.

To change the map : click on the green buttons with a black cross to zoom in, on the green button with a dash to zoom out, or on the green arrows for adjacent maps.


METAR-TAF: